sensor_id;sensor_type;location;lat;lon;timestamp;P1;durP1;ratioP1;P2;durP2;ratioP2
42000;SDS011;27689;48.390;10.856;2024-03-02T00:01:26;24.50;;;17.50;;
42000;SDS011;27689;48.390;10.856;2024-03-02T00:04:09;22.63;;;17.50;;
42000;SDS011;27689;48.390;10.856;2024-03-02T00:06:53;21.97;;;16.80;;
42000;SDS011;27689;48.390;10.856;2024-03-02T00:09:40;25.75;;;17.67;;
42000;SDS011;27689;48.390;10.856;2024-03-02T00:12:24;22.75;;;17.17;;
42000;SDS011;27689;48.390;10.856;2024-03-02T00:18:30;24.27;;;18.45;;
42000;SDS011;27689;48.390;10.856;2024-03-02T00:21:16;25.73;;;19.30;;
42000;SDS011;27689;48.390;10.856;2024-03-02T00:24:09;23.17;;;18.60;;
42000;SDS011;27689;48.390;10.856;2024-03-02T00:27:04;25.58;;;18.17;;
42000;SDS011;27689;48.390;10.856;2024-03-02T00:29:50;25.48;;;18.23;;
42000;SDS011;27689;48.390;10.856;2024-03-02T00:32:34;27.10;;;19.80;;
42000;SDS011;27689;48.390;10.856;2024-03-02T00:35:18;25.15;;;19.63;;
42000;SDS011;27689;48.390;10.856;2024-03-02T00:38:06;31.95;;;20.70;;
42000;SDS011;27689;48.390;10.856;2024-03-02T00:40:50;27.83;;;21.20;;
42000;SDS011;27689;48.390;10.856;2024-03-02T00:43:41;28.98;;;21.63;;
42000;SDS011;27689;48.390;10.856;2024-03-02T00:46:44;29.20;;;21.65;;
42000;SDS011;27689;48.390;10.856;2024-03-02T00:49:28;29.52;;;21.77;;
42000;SDS011;27689;48.390;10.856;2024-03-02T00:52:12;31.95;;;22.83;;
42000;SDS011;27689;48.390;10.856;2024-03-02T00:54:57;31.77;;;23.43;;
42000;SDS011;27689;48.390;10.856;2024-03-02T00:57:40;27.25;;;21.50;;
42000;SDS011;27689;48.390;10.856;2024-03-02T01:00:24;31.50;;;23.87;;
42000;SDS011;27689;48.390;10.856;2024-03-02T01:03:08;29.92;;;22.30;;
42000;SDS011;27689;48.390;10.856;2024-03-02T01:05:53;33.65;;;22.52;;
42000;SDS011;27689;48.390;10.856;2024-03-02T01:08:38;31.23;;;24.00;;
42000;SDS011;27689;48.390;10.856;2024-03-02T01:11:23;32.38;;;23.85;;
42000;SDS011;27689;48.390;10.856;2024-03-02T01:14:07;32.60;;;24.30;;
42000;SDS011;27689;48.390;10.856;2024-03-02T01:16:51;31.48;;;23.55;;
42000;SDS011;27689;48.390;10.856;2024-03-02T01:19:35;33.28;;;23.10;;
42000;SDS011;27689;48.390;10.856;2024-03-02T01:22:19;31.73;;;22.00;;
42000;SDS011;27689;48.390;10.856;2024-03-02T01:25:08;29.88;;;22.35;;
42000;SDS011;27689;48.390;10.856;2024-03-02T01:27:52;29.67;;;20.83;;
42000;SDS011;27689;48.390;10.856;2024-03-02T01:30:36;27.47;;;21.10;;
42000;SDS011;27689;48.390;10.856;2024-03-02T01:33:20;29.02;;;21.40;;
42000;SDS011;27689;48.390;10.856;2024-03-02T01:36:04;23.83;;;18.63;;
42000;SDS011;27689;48.390;10.856;2024-03-02T01:38:48;23.17;;;18.10;;
42000;SDS011;27689;48.390;10.856;2024-03-02T01:41:32;20.10;;;16.87;;
42000;SDS011;27689;48.390;10.856;2024-03-02T01:44:16;24.98;;;18.67;;
42000;SDS011;27689;48.390;10.856;2024-03-02T01:47:01;24.65;;;18.45;;
42000;SDS011;27689;48.390;10.856;2024-03-02T01:49:46;23.35;;;18.05;;
42000;SDS011;27689;48.390;10.856;2024-03-02T01:52:30;19.42;;;15.50;;
42000;SDS011;27689;48.390;10.856;2024-03-02T01:55:14;22.38;;;17.35;;
42000;SDS011;27689;48.390;10.856;2024-03-02T01:57:58;21.92;;;16.20;;
42000;SDS011;27689;48.390;10.856;2024-03-02T02:00:42;18.48;;;14.50;;
42000;SDS011;27689;48.390;10.856;2024-03-02T02:03:26;17.42;;;13.57;;
42000;SDS011;27689;48.390;10.856;2024-03-02T02:06:09;19.77;;;14.63;;
42000;SDS011;27689;48.390;10.856;2024-03-02T02:08:53;16.27;;;13.10;;
42000;SDS011;27689;48.390;10.856;2024-03-02T02:11:37;16.37;;;13.13;;
42000;SDS011;27689;48.390;10.856;2024-03-02T02:14:22;15.98;;;13.23;;
42000;SDS011;27689;48.390;10.856;2024-03-02T02:17:06;18.30;;;13.73;;
42000;SDS011;27689;48.390;10.856;2024-03-02T02:19:50;17.17;;;13.05;;
42000;SDS011;27689;48.390;10.856;2024-03-02T02:22:34;16.17;;;12.20;;
42000;SDS011;27689;48.390;10.856;2024-03-02T02:25:18;14.95;;;12.05;;
42000;SDS011;27689;48.390;10.856;2024-03-02T02:28:02;15.25;;;11.98;;
42000;SDS011;27689;48.390;10.856;2024-03-02T02:30:46;14.83;;;12.03;;
42000;SDS011;27689;48.390;10.856;2024-03-02T02:33:30;14.30;;;11.60;;
42000;SDS011;27689;48.390;10.856;2024-03-02T02:36:14;16.33;;;13.50;;
42000;SDS011;27689;48.390;10.856;2024-03-02T02:38:58;15.73;;;13.50;;
42000;SDS011;27689;48.390;10.856;2024-03-02T02:41:47;16.23;;;12.02;;
42000;SDS011;27689;48.390;10.856;2024-03-02T02:44:31;15.77;;;11.85;;
42000;SDS011;27689;48.390;10.856;2024-03-02T02:47:15;15.17;;;12.47;;
42000;SDS011;27689;48.390;10.856;2024-03-02T02:49:59;14.25;;;12.32;;
42000;SDS011;27689;48.390;10.856;2024-03-02T02:52:43;16.63;;;13.07;;
42000;SDS011;27689;48.390;10.856;2024-03-02T02:55:27;14.43;;;11.13;;
42000;SDS011;27689;48.390;10.856;2024-03-02T02:58:11;14.32;;;12.23;;
42000;SDS011;27689;48.390;10.856;2024-03-02T03:00:55;14.70;;;11.80;;
42000;SDS011;27689;48.390;10.856;2024-03-02T03:03:40;13.82;;;11.88;;
42000;SDS011;27689;48.390;10.856;2024-03-02T03:06:27;14.17;;;11.63;;
42000;SDS011;27689;48.390;10.856;2024-03-02T03:09:11;14.43;;;11.60;;
42000;SDS011;27689;48.390;10.856;2024-03-02T03:11:55;12.93;;;10.67;;
42000;SDS011;27689;48.390;10.856;2024-03-02T03:14:40;13.97;;;11.57;;
42000;SDS011;27689;48.390;10.856;2024-03-02T03:17:24;13.93;;;11.25;;
42000;SDS011;27689;48.390;10.856;2024-03-02T03:20:08;15.60;;;12.55;;
42000;SDS011;27689;48.390;10.856;2024-03-02T03:22:59;13.55;;;11.88;;
42000;SDS011;27689;48.390;10.856;2024-03-02T03:25:43;13.25;;;11.35;;
42000;SDS011;27689;48.390;10.856;2024-03-02T03:28:27;13.35;;;11.82;;
42000;SDS011;27689;48.390;10.856;2024-03-02T03:31:11;14.90;;;12.20;;
42000;SDS011;27689;48.390;10.856;2024-03-02T03:33:56;15.50;;;12.75;;
42000;SDS011;27689;48.390;10.856;2024-03-02T03:36:40;12.57;;;11.23;;
42000;SDS011;27689;48.390;10.856;2024-03-02T03:39:23;13.55;;;11.18;;
42000;SDS011;27689;48.390;10.856;2024-03-02T03:42:07;12.95;;;11.55;;
42000;SDS011;27689;48.390;10.856;2024-03-02T03:44:51;15.40;;;11.70;;
42000;SDS011;27689;48.390;10.856;2024-03-02T03:47:35;12.10;;;10.80;;
42000;SDS011;27689;48.390;10.856;2024-03-02T03:50:19;12.90;;;11.52;;
42000;SDS011;27689;48.390;10.856;2024-03-02T03:53:03;13.13;;;11.43;;
42000;SDS011;27689;48.390;10.856;2024-03-02T03:55:47;15.47;;;13.10;;
42000;SDS011;27689;48.390;10.856;2024-03-02T03:58:33;16.10;;;13.55;;
42000;SDS011;27689;48.390;10.856;2024-03-02T04:01:17;14.73;;;12.40;;
42000;SDS011;27689;48.390;10.856;2024-03-02T04:04:00;16.05;;;13.75;;
42000;SDS011;27689;48.390;10.856;2024-03-02T04:06:46;16.02;;;13.20;;
42000;SDS011;27689;48.390;10.856;2024-03-02T04:09:30;17.83;;;15.93;;
42000;SDS011;27689;48.390;10.856;2024-03-02T04:12:14;17.13;;;15.13;;
42000;SDS011;27689;48.390;10.856;2024-03-02T04:14:58;17.43;;;14.47;;
42000;SDS011;27689;48.390;10.856;2024-03-02T04:17:42;16.63;;;14.37;;
42000;SDS011;27689;48.390;10.856;2024-03-02T04:20:26;15.23;;;13.63;;
42000;SDS011;27689;48.390;10.856;2024-03-02T04:23:10;16.35;;;14.15;;
42000;SDS011;27689;48.390;10.856;2024-03-02T04:25:54;13.90;;;12.37;;
42000;SDS011;27689;48.390;10.856;2024-03-02T04:28:37;14.63;;;13.03;;
42000;SDS011;27689;48.390;10.856;2024-03-02T04:31:21;15.60;;;12.90;;
42000;SDS011;27689;48.390;10.856;2024-03-02T04:34:05;14.17;;;12.20;;
42000;SDS011;27689;48.390;10.856;2024-03-02T04:36:49;14.35;;;12.55;;
42000;SDS011;27689;48.390;10.856;2024-03-02T04:39:34;14.07;;;12.30;;
42000;SDS011;27689;48.390;10.856;2024-03-02T04:42:19;14.75;;;11.70;;
42000;SDS011;27689;48.390;10.856;2024-03-02T04:45:03;12.65;;;11.35;;
42000;SDS011;27689;48.390;10.856;2024-03-02T04:47:46;12.83;;;11.43;;
42000;SDS011;27689;48.390;10.856;2024-03-02T04:50:30;14.02;;;11.82;;
42000;SDS011;27689;48.390;10.856;2024-03-02T04:53:14;16.37;;;13.63;;
42000;SDS011;27689;48.390;10.856;2024-03-02T04:55:58;17.40;;;14.93;;
42000;SDS011;27689;48.390;10.856;2024-03-02T04:59:01;16.90;;;14.13;;
42000;SDS011;27689;48.390;10.856;2024-03-02T05:01:45;16.00;;;13.25;;
42000;SDS011;27689;48.390;10.856;2024-03-02T05:04:30;15.50;;;12.30;;
42000;SDS011;27689;48.390;10.856;2024-03-02T05:07:14;13.70;;;11.73;;
42000;SDS011;27689;48.390;10.856;2024-03-02T05:09:58;14.23;;;12.27;;
42000;SDS011;27689;48.390;10.856;2024-03-02T05:12:42;16.10;;;13.43;;
42000;SDS011;27689;48.390;10.856;2024-03-02T05:15:26;15.10;;;11.50;;
42000;SDS011;27689;48.390;10.856;2024-03-02T05:18:10;18.48;;;13.98;;
42000;SDS011;27689;48.390;10.856;2024-03-02T05:20:54;16.58;;;13.93;;
42000;SDS011;27689;48.390;10.856;2024-03-02T05:23:38;16.08;;;12.60;;
42000;SDS011;27689;48.390;10.856;2024-03-02T05:26:22;16.58;;;14.13;;
42000;SDS011;27689;48.390;10.856;2024-03-02T05:29:06;15.13;;;13.15;;
42000;SDS011;27689;48.390;10.856;2024-03-02T05:31:50;14.18;;;12.13;;
42000;SDS011;27689;48.390;10.856;2024-03-02T05:34:34;12.27;;;10.30;;
42000;SDS011;27689;48.390;10.856;2024-03-02T05:37:19;16.00;;;12.90;;
42000;SDS011;27689;48.390;10.856;2024-03-02T05:40:03;15.38;;;13.20;;
42000;SDS011;27689;48.390;10.856;2024-03-02T05:42:49;15.00;;;13.32;;
42000;SDS011;27689;48.390;10.856;2024-03-02T05:45:33;13.87;;;12.30;;
42000;SDS011;27689;48.390;10.856;2024-03-02T05:48:17;12.90;;;11.32;;
42000;SDS011;27689;48.390;10.856;2024-03-02T05:51:01;14.45;;;11.73;;
42000;SDS011;27689;48.390;10.856;2024-03-02T05:53:45;13.10;;;11.23;;
42000;SDS011;27689;48.390;10.856;2024-03-02T05:56:29;15.37;;;12.17;;
42000;SDS011;27689;48.390;10.856;2024-03-02T05:59:12;13.70;;;12.00;;
42000;SDS011;27689;48.390;10.856;2024-03-02T06:01:56;15.70;;;12.97;;
42000;SDS011;27689;48.390;10.856;2024-03-02T06:04:40;18.73;;;15.02;;
42000;SDS011;27689;48.390;10.856;2024-03-02T06:07:24;17.13;;;13.87;;
42000;SDS011;27689;48.390;10.856;2024-03-02T06:10:08;18.83;;;14.52;;
42000;SDS011;27689;48.390;10.856;2024-03-02T06:12:52;17.30;;;14.35;;
42000;SDS011;27689;48.390;10.856;2024-03-02T06:15:36;15.27;;;13.38;;
42000;SDS011;27689;48.390;10.856;2024-03-02T06:18:20;16.58;;;13.35;;
42000;SDS011;27689;48.390;10.856;2024-03-02T06:21:04;16.10;;;13.60;;
42000;SDS011;27689;48.390;10.856;2024-03-02T06:23:48;17.08;;;14.77;;
42000;SDS011;27689;48.390;10.856;2024-03-02T06:26:32;15.82;;;13.85;;
42000;SDS011;27689;48.390;10.856;2024-03-02T06:29:16;16.17;;;13.95;;
42000;SDS011;27689;48.390;10.856;2024-03-02T06:32:00;18.23;;;15.07;;
42000;SDS011;27689;48.390;10.856;2024-03-02T06:34:43;16.90;;;14.60;;
42000;SDS011;27689;48.390;10.856;2024-03-02T06:37:27;18.60;;;16.15;;
42000;SDS011;27689;48.390;10.856;2024-03-02T06:40:11;19.83;;;16.63;;
42000;SDS011;27689;48.390;10.856;2024-03-02T06:42:55;19.05;;;16.33;;
42000;SDS011;27689;48.390;10.856;2024-03-02T06:45:39;21.87;;;17.53;;
42000;SDS011;27689;48.390;10.856;2024-03-02T06:48:24;21.52;;;16.55;;
42000;SDS011;27689;48.390;10.856;2024-03-02T06:51:08;24.92;;;20.58;;
42000;SDS011;27689;48.390;10.856;2024-03-02T06:53:52;23.90;;;19.27;;
42000;SDS011;27689;48.390;10.856;2024-03-02T06:56:36;24.08;;;19.15;;
42000;SDS011;27689;48.390;10.856;2024-03-02T06:59:21;24.75;;;19.13;;
42000;SDS011;27689;48.390;10.856;2024-03-02T07:02:05;26.07;;;21.13;;
42000;SDS011;27689;48.390;10.856;2024-03-02T07:04:49;28.50;;;22.33;;
42000;SDS011;27689;48.390;10.856;2024-03-02T07:07:38;30.27;;;24.67;;
42000;SDS011;27689;48.390;10.856;2024-03-02T07:10:22;32.20;;;25.02;;
42000;SDS011;27689;48.390;10.856;2024-03-02T07:13:06;34.42;;;26.35;;
42000;SDS011;27689;48.390;10.856;2024-03-02T07:15:50;36.05;;;25.48;;
42000;SDS011;27689;48.390;10.856;2024-03-02T07:18:46;33.30;;;25.60;;
42000;SDS011;27689;48.390;10.856;2024-03-02T07:21:35;32.22;;;24.23;;
42000;SDS011;27689;48.390;10.856;2024-03-02T07:24:19;28.60;;;23.55;;
42000;SDS011;27689;48.390;10.856;2024-03-02T07:27:03;31.05;;;24.25;;
42000;SDS011;27689;48.390;10.856;2024-03-02T07:29:47;29.25;;;23.20;;
42000;SDS011;27689;48.390;10.856;2024-03-02T07:32:31;27.20;;;22.75;;
42000;SDS011;27689;48.390;10.856;2024-03-02T07:35:15;26.38;;;21.20;;
42000;SDS011;27689;48.390;10.856;2024-03-02T07:37:59;27.33;;;21.17;;
42000;SDS011;27689;48.390;10.856;2024-03-02T07:40:43;26.10;;;21.60;;
42000;SDS011;27689;48.390;10.856;2024-03-02T07:43:27;25.77;;;20.77;;
42000;SDS011;27689;48.390;10.856;2024-03-02T07:46:11;27.30;;;20.63;;
42000;SDS011;27689;48.390;10.856;2024-03-02T07:48:55;22.45;;;18.17;;
42000;SDS011;27689;48.390;10.856;2024-03-02T07:51:40;23.45;;;19.02;;
42000;SDS011;27689;48.390;10.856;2024-03-02T07:54:23;21.37;;;17.57;;
42000;SDS011;27689;48.390;10.856;2024-03-02T07:57:07;21.98;;;18.52;;
42000;SDS011;27689;48.390;10.856;2024-03-02T07:59:52;21.50;;;17.10;;
42000;SDS011;27689;48.390;10.856;2024-03-02T08:02:36;17.27;;;14.83;;
42000;SDS011;27689;48.390;10.856;2024-03-02T08:05:20;17.98;;;14.93;;
42000;SDS011;27689;48.390;10.856;2024-03-02T08:08:05;18.33;;;14.57;;
42000;SDS011;27689;48.390;10.856;2024-03-02T08:10:49;18.58;;;14.93;;
42000;SDS011;27689;48.390;10.856;2024-03-02T08:13:33;15.82;;;14.02;;
42000;SDS011;27689;48.390;10.856;2024-03-02T08:16:17;17.70;;;13.73;;
42000;SDS011;27689;48.390;10.856;2024-03-02T08:19:03;14.70;;;13.15;;
42000;SDS011;27689;48.390;10.856;2024-03-02T08:21:47;19.37;;;12.90;;
42000;SDS011;27689;48.390;10.856;2024-03-02T08:24:31;14.53;;;11.90;;
42000;SDS011;27689;48.390;10.856;2024-03-02T08:30:00;13.15;;;10.60;;
42000;SDS011;27689;48.390;10.856;2024-03-02T08:32:44;11.97;;;10.37;;
42000;SDS011;27689;48.390;10.856;2024-03-02T08:38:12;10.82;;;8.93;;
42000;SDS011;27689;48.390;10.856;2024-03-02T08:40:56;12.20;;;9.60;;
42000;SDS011;27689;48.390;10.856;2024-03-02T08:43:40;11.25;;;10.10;;
42000;SDS011;27689;48.390;10.856;2024-03-02T08:46:25;9.32;;;8.32;;
42000;SDS011;27689;48.390;10.856;2024-03-02T08:49:09;10.40;;;8.40;;
42000;SDS011;27689;48.390;10.856;2024-03-02T08:51:54;9.55;;;7.63;;
42000;SDS011;27689;48.390;10.856;2024-03-02T08:54:38;8.60;;;7.30;;
42000;SDS011;27689;48.390;10.856;2024-03-02T08:57:22;8.90;;;6.90;;
42000;SDS011;27689;48.390;10.856;2024-03-02T09:00:06;11.18;;;7.30;;
42000;SDS011;27689;48.390;10.856;2024-03-02T09:02:51;7.57;;;6.53;;
42000;SDS011;27689;48.390;10.856;2024-03-02T09:05:35;6.05;;;5.43;;
42000;SDS011;27689;48.390;10.856;2024-03-02T09:08:19;6.68;;;6.07;;
42000;SDS011;27689;48.390;10.856;2024-03-02T09:11:03;6.97;;;6.10;;
42000;SDS011;27689;48.390;10.856;2024-03-02T09:13:48;5.28;;;4.60;;
42000;SDS011;27689;48.390;10.856;2024-03-02T09:16:32;5.87;;;5.27;;
42000;SDS011;27689;48.390;10.856;2024-03-02T09:19:16;6.82;;;6.13;;
42000;SDS011;27689;48.390;10.856;2024-03-02T09:22:00;6.75;;;5.72;;
42000;SDS011;27689;48.390;10.856;2024-03-02T09:24:46;6.60;;;5.88;;
42000;SDS011;27689;48.390;10.856;2024-03-02T09:27:30;6.67;;;5.63;;
42000;SDS011;27689;48.390;10.856;2024-03-02T09:30:14;7.00;;;5.32;;
42000;SDS011;27689;48.390;10.856;2024-03-02T09:32:59;4.88;;;4.35;;
42000;SDS011;27689;48.390;10.856;2024-03-02T09:35:42;6.07;;;4.53;;
42000;SDS011;27689;48.390;10.856;2024-03-02T09:38:26;6.00;;;5.17;;
42000;SDS011;27689;48.390;10.856;2024-03-02T09:41:10;6.47;;;5.85;;
42000;SDS011;27689;48.390;10.856;2024-03-02T09:43:55;6.20;;;5.03;;
42000;SDS011;27689;48.390;10.856;2024-03-02T09:46:39;8.97;;;5.53;;
42000;SDS011;27689;48.390;10.856;2024-03-02T09:49:23;5.97;;;5.13;;
42000;SDS011;27689;48.390;10.856;2024-03-02T09:52:07;5.60;;;5.00;;
42000;SDS011;27689;48.390;10.856;2024-03-02T09:54:52;5.88;;;4.65;;
42000;SDS011;27689;48.390;10.856;2024-03-02T09:57:36;3.80;;;3.40;;
42000;SDS011;27689;48.390;10.856;2024-03-02T10:00:20;4.47;;;3.80;;
42000;SDS011;27689;48.390;10.856;2024-03-02T10:03:04;5.30;;;3.72;;
42000;SDS011;27689;48.390;10.856;2024-03-02T10:05:49;4.72;;;3.17;;
42000;SDS011;27689;48.390;10.856;2024-03-02T10:08:42;3.25;;;2.80;;
42000;SDS011;27689;48.390;10.856;2024-03-02T10:11:31;10.63;;;7.88;;
42000;SDS011;27689;48.390;10.856;2024-03-02T10:14:17;4.97;;;3.70;;
42000;SDS011;27689;48.390;10.856;2024-03-02T10:17:02;5.07;;;3.50;;
42000;SDS011;27689;48.390;10.856;2024-03-02T10:19:47;25.80;;;15.05;;
42000;SDS011;27689;48.390;10.856;2024-03-02T10:22:33;7.80;;;6.30;;
42000;SDS011;27689;48.390;10.856;2024-03-02T10:25:31;4.90;;;3.80;;
42000;SDS011;27689;48.390;10.856;2024-03-02T10:28:15;5.15;;;4.35;;
42000;SDS011;27689;48.390;10.856;2024-03-02T10:30:59;4.83;;;3.60;;
42000;SDS011;27689;48.390;10.856;2024-03-02T10:33:44;4.65;;;3.58;;
42000;SDS011;27689;48.390;10.856;2024-03-02T10:36:28;4.18;;;3.50;;
42000;SDS011;27689;48.390;10.856;2024-03-02T10:39:12;4.03;;;3.60;;
42000;SDS011;27689;48.390;10.856;2024-03-02T10:41:58;4.03;;;3.10;;
42000;SDS011;27689;48.390;10.856;2024-03-02T10:44:42;5.28;;;3.20;;
42000;SDS011;27689;48.390;10.856;2024-03-02T10:47:27;5.50;;;4.88;;
42000;SDS011;27689;48.390;10.856;2024-03-02T10:50:12;4.82;;;3.45;;
42000;SDS011;27689;48.390;10.856;2024-03-02T10:52:56;5.50;;;3.63;;
42000;SDS011;27689;48.390;10.856;2024-03-02T10:55:41;6.15;;;4.22;;
42000;SDS011;27689;48.390;10.856;2024-03-02T10:58:25;4.13;;;3.72;;
42000;SDS011;27689;48.390;10.856;2024-03-02T11:01:15;3.92;;;3.53;;
42000;SDS011;27689;48.390;10.856;2024-03-02T11:03:59;4.97;;;4.47;;
42000;SDS011;27689;48.390;10.856;2024-03-02T11:06:49;4.47;;;3.70;;
42000;SDS011;27689;48.390;10.856;2024-03-02T11:09:35;4.80;;;3.90;;
42000;SDS011;27689;48.390;10.856;2024-03-02T11:12:23;4.93;;;3.63;;
42000;SDS011;27689;48.390;10.856;2024-03-02T11:15:29;5.43;;;3.90;;
42000;SDS011;27689;48.390;10.856;2024-03-02T11:18:16;4.80;;;3.97;;
42000;SDS011;27689;48.390;10.856;2024-03-02T11:21:30;6.15;;;4.47;;
42000;SDS011;27689;48.390;10.856;2024-03-02T11:30:52;8.93;;;6.90;;
42000;SDS011;27689;48.390;10.856;2024-03-02T11:33:37;8.73;;;6.60;;
42000;SDS011;27689;48.390;10.856;2024-03-02T11:36:22;7.03;;;6.18;;
42000;SDS011;27689;48.390;10.856;2024-03-02T11:39:07;8.40;;;7.43;;
42000;SDS011;27689;48.390;10.856;2024-03-02T11:41:53;8.30;;;6.40;;
42000;SDS011;27689;48.390;10.856;2024-03-02T11:44:38;8.13;;;6.18;;
42000;SDS011;27689;48.390;10.856;2024-03-02T11:47:24;7.45;;;6.00;;
42000;SDS011;27689;48.390;10.856;2024-03-02T11:50:15;12.48;;;9.13;;
42000;SDS011;27689;48.390;10.856;2024-03-02T11:53:12;9.82;;;7.50;;
42000;SDS011;27689;48.390;10.856;2024-03-02T11:55:58;8.43;;;7.32;;
42000;SDS011;27689;48.390;10.856;2024-03-02T11:58:42;8.60;;;7.15;;
42000;SDS011;27689;48.390;10.856;2024-03-02T12:01:28;9.27;;;7.60;;
42000;SDS011;27689;48.390;10.856;2024-03-02T12:04:13;7.05;;;5.85;;
42000;SDS011;27689;48.390;10.856;2024-03-02T12:09:44;7.40;;;6.00;;
42000;SDS011;27689;48.390;10.856;2024-03-02T12:15:13;8.65;;;6.45;;
42000;SDS011;27689;48.390;10.856;2024-03-02T12:20:46;11.43;;;6.60;;
42000;SDS011;27689;48.390;10.856;2024-03-02T12:23:36;9.65;;;7.53;;
42000;SDS011;27689;48.390;10.856;2024-03-02T12:26:22;8.80;;;7.40;;
42000;SDS011;27689;48.390;10.856;2024-03-02T12:29:07;10.23;;;8.85;;
42000;SDS011;27689;48.390;10.856;2024-03-02T12:31:53;12.43;;;9.23;;
42000;SDS011;27689;48.390;10.856;2024-03-02T12:34:38;11.75;;;8.55;;
42000;SDS011;27689;48.390;10.856;2024-03-02T12:37:24;12.27;;;9.95;;
42000;SDS011;27689;48.390;10.856;2024-03-02T12:40:11;14.23;;;10.23;;
42000;SDS011;27689;48.390;10.856;2024-03-02T12:42:56;11.85;;;9.48;;
42000;SDS011;27689;48.390;10.856;2024-03-02T12:45:40;12.57;;;10.00;;
42000;SDS011;27689;48.390;10.856;2024-03-02T12:48:24;20.40;;;15.82;;
42000;SDS011;27689;48.390;10.856;2024-03-02T12:51:08;18.30;;;14.07;;
42000;SDS011;27689;48.390;10.856;2024-03-02T12:53:56;20.20;;;15.18;;
42000;SDS011;27689;48.390;10.856;2024-03-02T12:56:41;17.73;;;13.93;;
42000;SDS011;27689;48.390;10.856;2024-03-02T12:59:29;17.08;;;12.65;;
42000;SDS011;27689;48.390;10.856;2024-03-02T13:02:19;17.85;;;12.30;;
42000;SDS011;27689;48.390;10.856;2024-03-02T13:05:03;20.25;;;14.68;;
42000;SDS011;27689;48.390;10.856;2024-03-02T13:07:50;22.52;;;14.73;;
42000;SDS011;27689;48.390;10.856;2024-03-02T13:10:34;16.85;;;13.30;;
42000;SDS011;27689;48.390;10.856;2024-03-02T13:13:18;15.43;;;11.55;;
42000;SDS011;27689;48.390;10.856;2024-03-02T13:16:02;16.17;;;12.20;;
42000;SDS011;27689;48.390;10.856;2024-03-02T13:18:47;16.33;;;12.65;;
42000;SDS011;27689;48.390;10.856;2024-03-02T13:21:31;15.98;;;12.15;;
42000;SDS011;27689;48.390;10.856;2024-03-02T13:24:15;15.35;;;11.55;;
42000;SDS011;27689;48.390;10.856;2024-03-02T13:26:59;16.27;;;11.77;;
42000;SDS011;27689;48.390;10.856;2024-03-02T13:29:43;19.02;;;14.45;;
42000;SDS011;27689;48.390;10.856;2024-03-02T13:32:27;18.60;;;13.50;;
42000;SDS011;27689;48.390;10.856;2024-03-02T13:35:11;17.87;;;12.93;;
42000;SDS011;27689;48.390;10.856;2024-03-02T13:37:55;20.17;;;13.23;;
42000;SDS011;27689;48.390;10.856;2024-03-02T13:40:39;21.57;;;12.63;;
42000;SDS011;27689;48.390;10.856;2024-03-02T13:43:24;21.40;;;13.00;;
42000;SDS011;27689;48.390;10.856;2024-03-02T13:46:08;19.98;;;13.95;;
42000;SDS011;27689;48.390;10.856;2024-03-02T13:48:54;17.75;;;13.10;;
42000;SDS011;27689;48.390;10.856;2024-03-02T13:54:22;18.50;;;13.98;;
42000;SDS011;27689;48.390;10.856;2024-03-02T13:57:06;18.55;;;12.90;;
42000;SDS011;27689;48.390;10.856;2024-03-02T14:02:36;17.23;;;13.63;;
42000;SDS011;27689;48.390;10.856;2024-03-02T14:05:20;20.92;;;14.95;;
42000;SDS011;27689;48.390;10.856;2024-03-02T14:08:04;19.83;;;15.77;;
42000;SDS011;27689;48.390;10.856;2024-03-02T14:10:48;21.50;;;15.93;;
42000;SDS011;27689;48.390;10.856;2024-03-02T14:13:32;23.35;;;16.05;;
42000;SDS011;27689;48.390;10.856;2024-03-02T14:16:16;22.95;;;16.85;;
42000;SDS011;27689;48.390;10.856;2024-03-02T14:19:00;19.40;;;14.75;;
42000;SDS011;27689;48.390;10.856;2024-03-02T14:21:44;18.60;;;13.60;;
42000;SDS011;27689;48.390;10.856;2024-03-02T14:24:28;18.50;;;12.50;;
42000;SDS011;27689;48.390;10.856;2024-03-02T14:27:12;15.63;;;12.07;;
42000;SDS011;27689;48.390;10.856;2024-03-02T14:32:41;15.57;;;11.15;;
42000;SDS011;27689;48.390;10.856;2024-03-02T14:35:26;14.68;;;11.07;;
42000;SDS011;27689;48.390;10.856;2024-03-02T14:38:12;15.65;;;11.25;;
42000;SDS011;27689;48.390;10.856;2024-03-02T14:40:56;15.82;;;10.77;;
42000;SDS011;27689;48.390;10.856;2024-03-02T14:43:40;17.20;;;11.82;;
42000;SDS011;27689;48.390;10.856;2024-03-02T14:46:24;14.95;;;11.20;;
42000;SDS011;27689;48.390;10.856;2024-03-02T14:49:08;12.48;;;8.45;;
42000;SDS011;27689;48.390;10.856;2024-03-02T14:51:53;12.73;;;9.77;;
42000;SDS011;27689;48.390;10.856;2024-03-02T14:54:37;13.90;;;9.85;;
42000;SDS011;27689;48.390;10.856;2024-03-02T14:57:21;13.35;;;8.88;;
42000;SDS011;27689;48.390;10.856;2024-03-02T15:00:05;10.38;;;7.57;;
42000;SDS011;27689;48.390;10.856;2024-03-02T15:02:51;13.55;;;9.68;;
42000;SDS011;27689;48.390;10.856;2024-03-02T15:05:35;12.95;;;9.55;;
42000;SDS011;27689;48.390;10.856;2024-03-02T15:08:19;11.63;;;9.00;;
42000;SDS011;27689;48.390;10.856;2024-03-02T15:11:03;16.13;;;9.63;;
42000;SDS011;27689;48.390;10.856;2024-03-02T15:13:47;11.37;;;8.27;;
42000;SDS011;27689;48.390;10.856;2024-03-02T15:16:31;7.95;;;5.80;;
42000;SDS011;27689;48.390;10.856;2024-03-02T15:19:16;9.88;;;6.20;;
42000;SDS011;27689;48.390;10.856;2024-03-02T15:22:00;12.47;;;7.03;;
42000;SDS011;27689;48.390;10.856;2024-03-02T15:24:43;10.60;;;6.20;;
42000;SDS011;27689;48.390;10.856;2024-03-02T15:27:27;10.82;;;6.78;;
42000;SDS011;27689;48.390;10.856;2024-03-02T15:30:11;7.88;;;5.97;;
42000;SDS011;27689;48.390;10.856;2024-03-02T15:32:55;9.90;;;6.47;;
42000;SDS011;27689;48.390;10.856;2024-03-02T15:35:39;10.97;;;8.00;;
42000;SDS011;27689;48.390;10.856;2024-03-02T15:38:23;10.55;;;8.00;;
42000;SDS011;27689;48.390;10.856;2024-03-02T15:41:07;10.20;;;8.40;;
42000;SDS011;27689;48.390;10.856;2024-03-02T15:43:51;11.82;;;8.20;;
42000;SDS011;27689;48.390;10.856;2024-03-02T15:46:35;11.85;;;8.50;;
42000;SDS011;27689;48.390;10.856;2024-03-02T15:49:20;13.50;;;8.88;;
42000;SDS011;27689;48.390;10.856;2024-03-02T15:52:03;12.05;;;7.70;;
42000;SDS011;27689;48.390;10.856;2024-03-02T15:54:48;12.97;;;7.53;;
42000;SDS011;27689;48.390;10.856;2024-03-02T15:57:33;12.25;;;8.30;;
42000;SDS011;27689;48.390;10.856;2024-03-02T16:00:17;13.40;;;9.10;;
42000;SDS011;27689;48.390;10.856;2024-03-02T16:03:02;13.07;;;9.50;;
42000;SDS011;27689;48.390;10.856;2024-03-02T16:05:46;11.77;;;8.70;;
42000;SDS011;27689;48.390;10.856;2024-03-02T16:08:29;13.77;;;8.73;;
42000;SDS011;27689;48.390;10.856;2024-03-02T16:11:13;14.50;;;9.90;;
42000;SDS011;27689;48.390;10.856;2024-03-02T16:13:57;12.15;;;9.00;;
42000;SDS011;27689;48.390;10.856;2024-03-02T16:19:26;13.98;;;9.30;;
42000;SDS011;27689;48.390;10.856;2024-03-02T16:22:10;19.23;;;11.43;;
42000;SDS011;27689;48.390;10.856;2024-03-02T16:24:55;17.92;;;11.30;;
42000;SDS011;27689;48.390;10.856;2024-03-02T16:27:39;16.77;;;13.02;;
42000;SDS011;27689;48.390;10.856;2024-03-02T16:30:24;20.88;;;13.15;;
42000;SDS011;27689;48.390;10.856;2024-03-02T16:33:08;17.30;;;12.77;;